Jamestown, Missouri
Current Conditions -  °F | °C
As of 7:54 AM on Monday 26 Jan 2015 (Local Time) from KCOU Reporting Station
Overcast Overcast  
Wind Chill: 24°   Ceiling: 2500
Heat Index: 30°   Visibility: 7mi
Dew Point: 28°   Wind: 6mph
Humidity: 92%   Direction: 220°SW
Pressure: 30.04"   Gusts: NA
Location:  38.77°N, 92.48°W
Report Text: KCOU 261354Z 22005KT 7SM OVC025 M01/M02 A3004 RMK AO2 SLP181 T10111022
Loading
Personal Weather Stations






























Interactive Weather Map New forecast layout! Learn more

10-Day Weather Forecast

Advertisements
Track Severe Weather on mobile